sensor_id;sensor_type;location;lat;lon;timestamp;pressure;altitude;pressure_sealevel;temperature;humidity
47763;BME280;33526;42.690;23.322;2023-07-13T00:03:26;95292.66;;;23.79;57.71
47763;BME280;33526;42.690;23.322;2023-07-13T00:06:21;95236.66;;;23.41;58.40
47763;BME280;33526;42.690;23.322;2023-07-13T00:15:21;95256.03;;;23.56;60.63
47763;BME280;33526;42.690;23.322;2023-07-13T00:18:46;95237.66;;;23.31;63.99
47763;BME280;33526;42.690;23.322;2023-07-13T00:24:37;95328.25;;;23.64;67.14
47763;BME280;33526;42.690;23.322;2023-07-13T00:27:34;95226.03;;;22.75;68.45
47763;BME280;33526;42.690;23.322;2023-07-13T00:33:01;95196.19;;;22.49;69.75
47763;BME280;33526;42.690;23.322;2023-07-13T00:35:59;95273.25;;;22.97;70.12
47763;BME280;33526;42.690;23.322;2023-07-13T00:41:09;95316.41;;;23.07;71.44
47763;BME280;33526;42.690;23.322;2023-07-13T00:49:29;95284.56;;;22.89;71.67
47763;BME280;33526;42.690;23.322;2023-07-13T00:52:09;95179.97;;;22.31;70.76
47763;BME280;33526;42.690;23.322;2023-07-13T00:54:47;95227.97;;;22.67;69.55
47763;BME280;33526;42.690;23.322;2023-07-13T00:57:24;95262.75;;;22.79;70.08
47763;BME280;33526;42.690;23.322;2023-07-13T01:00:08;95197.28;;;22.14;70.16
47763;BME280;33526;42.690;23.322;2023-07-13T01:03:07;95199.94;;;22.25;69.78
47763;BME280;33526;42.690;23.322;2023-07-13T01:05:48;95261.50;;;22.74;68.85
47763;BME280;33526;42.690;23.322;2023-07-13T01:08:29;95186.13;;;22.16;68.67
47763;BME280;33526;42.690;23.322;2023-07-13T01:14:01;95207.34;;;22.02;69.93
47763;BME280;33526;42.690;23.322;2023-07-13T01:16:40;95333.22;;;22.78;70.52
47763;BME280;33526;42.690;23.322;2023-07-13T01:19:33;95240.75;;;22.14;71.13
47763;BME280;33526;42.690;23.322;2023-07-13T01:22:23;95238.16;;;22.17;71.19
47763;BME280;33526;42.690;23.322;2023-07-13T01:25:16;95211.63;;;22.08;70.83
47763;BME280;33526;42.690;23.322;2023-07-13T01:28:20;95236.44;;;22.27;71.18
47763;BME280;33526;42.690;23.322;2023-07-13T01:30:52;95174.72;;;21.70;72.14
47763;BME280;33526;42.690;23.322;2023-07-13T01:35:57;95236.34;;;22.00;73.44
47763;BME280;33526;42.690;23.322;2023-07-13T01:39:16;95272.63;;;22.32;73.03
47763;BME280;33526;42.690;23.322;2023-07-13T01:44:20;95179.25;;;21.79;73.13
47763;BME280;33526;42.690;23.322;2023-07-13T01:46:50;95272.97;;;22.42;72.76
47763;BME280;33526;42.690;23.322;2023-07-13T01:49:22;95220.63;;;22.12;72.69
47763;BME280;33526;42.690;23.322;2023-07-13T01:51:55;95200.84;;;21.88;72.79
47763;BME280;33526;42.690;23.322;2023-07-13T01:54:25;95261.75;;;22.30;73.08
47763;BME280;33526;42.690;23.322;2023-07-13T01:56:53;95190.47;;;21.71;74.65
47763;BME280;33526;42.690;23.322;2023-07-13T01:59:24;95276.31;;;22.27;75.10
47763;BME280;33526;42.690;23.322;2023-07-13T02:01:51;95320.16;;;22.37;75.71
47763;BME280;33526;42.690;23.322;2023-07-13T02:04:23;95296.53;;;22.23;76.67
47763;BME280;33526;42.690;23.322;2023-07-13T02:07:43;95197.81;;;21.48;76.81
47763;BME280;33526;42.690;23.322;2023-07-13T02:12:45;95201.81;;;21.58;76.75
47763;BME280;33526;42.690;23.322;2023-07-13T02:15:31;95267.91;;;22.02;76.94
47763;BME280;33526;42.690;23.322;2023-07-13T02:18:07;95172.56;;;21.38;77.42
47763;BME280;33526;42.690;23.322;2023-07-13T02:20:39;95302.00;;;22.21;77.79
47763;BME280;33526;42.690;23.322;2023-07-13T02:23:08;95199.34;;;21.49;78.76
47763;BME280;33526;42.690;23.322;2023-07-13T02:26:13;95325.44;;;22.33;79.23
47763;BME280;33526;42.690;23.322;2023-07-13T02:28:41;95328.16;;;22.20;79.78
47763;BME280;33526;42.690;23.322;2023-07-13T02:33:47;95340.28;;;22.07;81.74
47763;BME280;33526;42.690;23.322;2023-07-13T02:36:58;95214.56;;;21.32;82.52
47763;BME280;33526;42.690;23.322;2023-07-13T02:39:46;95277.38;;;21.72;82.70
47763;BME280;33526;42.690;23.322;2023-07-13T02:42:15;95250.06;;;21.64;82.65
47763;BME280;33526;42.690;23.322;2023-07-13T02:45:29;95328.56;;;22.10;82.57
47763;BME280;33526;42.690;23.322;2023-07-13T02:47:55;95210.38;;;21.33;82.51
47763;BME280;33526;42.690;23.322;2023-07-13T02:50:43;95204.91;;;21.35;82.06
47763;BME280;33526;42.690;23.322;2023-07-13T02:53:12;95209.09;;;21.34;81.75
47763;BME280;33526;42.690;23.322;2023-07-13T02:55:45;95256.78;;;21.66;81.57
47763;BME280;33526;42.690;23.322;2023-07-13T02:58:21;95257.13;;;21.57;82.05
47763;BME280;33526;42.690;23.322;2023-07-13T03:00:55;95209.16;;;21.10;81.89
47763;BME280;33526;42.690;23.322;2023-07-13T03:03:28;95239.56;;;21.15;82.27
47763;BME280;33526;42.690;23.322;2023-07-13T03:06:17;95275.56;;;21.31;82.62
47763;BME280;33526;42.690;23.322;2023-07-13T03:09:03;95350.13;;;21.43;83.56
47763;BME280;33526;42.690;23.322;2023-07-13T03:11:37;95223.75;;;20.51;84.35
47763;BME280;33526;42.690;23.322;2023-07-13T03:14:30;95338.56;;;21.35;84.50
47763;BME280;33526;42.690;23.322;2023-07-13T03:17:03;95248.16;;;20.66;84.49
47763;BME280;33526;42.690;23.322;2023-07-13T03:19:32;95255.19;;;20.84;84.11
47763;BME280;33526;42.690;23.322;2023-07-13T03:22:15;95346.25;;;21.41;83.92
47763;BME280;33526;42.690;23.322;2023-07-13T03:27:38;95290.72;;;20.96;83.81
47763;BME280;33526;42.690;23.322;2023-07-13T03:30:25;95247.19;;;20.82;82.89
47763;BME280;33526;42.690;23.322;2023-07-13T03:33:19;95219.34;;;20.50;82.00
47763;BME280;33526;42.690;23.322;2023-07-13T03:35:51;95343.66;;;21.43;82.30
47763;BME280;33526;42.690;23.322;2023-07-13T03:41:14;95281.63;;;20.97;81.45
47763;BME280;33526;42.690;23.322;2023-07-13T03:44:11;95217.38;;;20.70;80.63
47763;BME280;33526;42.690;23.322;2023-07-13T03:46:52;95278.13;;;21.10;79.86
47763;BME280;33526;42.690;23.322;2023-07-13T03:49:22;95278.78;;;21.22;79.68
47763;BME280;33526;42.690;23.322;2023-07-13T03:51:57;95271.19;;;21.30;78.92
47763;BME280;33526;42.690;23.322;2023-07-13T03:54:40;95269.47;;;21.41;78.29
47763;BME280;33526;42.690;23.322;2023-07-13T03:57:11;95234.69;;;21.34;77.96
47763;BME280;33526;42.690;23.322;2023-07-13T03:59:43;95219.53;;;21.26;76.86
47763;BME280;33526;42.690;23.322;2023-07-13T04:05:17;95282.03;;;21.89;75.46
47763;BME280;33526;42.690;23.322;2023-07-13T04:08:30;95297.38;;;22.37;74.77
47763;BME280;33526;42.690;23.322;2023-07-13T04:11:04;95290.47;;;22.78;72.55
47763;BME280;33526;42.690;23.322;2023-07-13T04:14:02;95248.28;;;23.03;69.95
47763;BME280;33526;42.690;23.322;2023-07-13T04:17:00;95271.13;;;23.78;67.19
47763;BME280;33526;42.690;23.322;2023-07-13T04:26:09;95252.06;;;24.70;61.42
47763;BME280;33526;42.690;23.322;2023-07-13T04:29:46;95297.75;;;25.12;60.16
47763;BME280;33526;42.690;23.322;2023-07-13T04:45:10;95336.66;;;26.92;53.68
47763;BME280;33526;42.690;23.322;2023-07-13T04:47:49;95329.41;;;27.14;52.70
47763;BME280;33526;42.690;23.322;2023-07-13T04:51:09;95362.63;;;27.71;51.42
47763;BME280;33526;42.690;23.322;2023-07-13T04:56:48;95388.25;;;26.77;53.82
47763;BME280;33526;42.690;23.322;2023-07-13T04:59:26;95325.09;;;26.38;53.77
47763;BME280;33526;42.690;23.322;2023-07-13T05:01:57;95383.31;;;26.93;53.66
47763;BME280;33526;42.690;23.322;2023-07-13T05:04:32;95266.91;;;25.91;54.56
47763;BME280;33526;42.690;23.322;2023-07-13T05:07:00;95300.34;;;25.97;54.83
47763;BME280;33526;42.690;23.322;2023-07-13T05:09:51;95378.69;;;26.66;54.62
47763;BME280;33526;42.690;23.322;2023-07-13T05:12:30;95304.78;;;26.13;55.26
47763;BME280;33526;42.690;23.322;2023-07-13T05:15:01;95385.41;;;26.84;54.69
47763;BME280;33526;42.690;23.322;2023-07-13T05:17:33;95276.34;;;25.71;56.60
47763;BME280;33526;42.690;23.322;2023-07-13T05:20:11;95389.84;;;27.16;54.16
47763;BME280;33526;42.690;23.322;2023-07-13T05:22:41;95321.94;;;27.03;53.05
47763;BME280;33526;42.690;23.322;2023-07-13T05:25:12;95274.28;;;26.39;53.38
47763;BME280;33526;42.690;23.322;2023-07-13T05:30:51;95276.81;;;26.65;53.12
47763;BME280;33526;42.690;23.322;2023-07-13T05:33:41;95280.81;;;26.62;53.09
47763;BME280;33526;42.690;23.322;2023-07-13T05:36:19;95285.44;;;26.88;52.11
47763;BME280;33526;42.690;23.322;2023-07-13T05:38:49;95296.31;;;27.05;51.90
47763;BME280;33526;42.690;23.322;2023-07-13T05:41:26;95393.38;;;28.57;49.85
47763;BME280;33526;42.690;23.322;2023-07-13T05:44:12;95387.53;;;28.73;48.93
47763;BME280;33526;42.690;23.322;2023-07-13T05:47:05;95312.72;;;28.07;49.28
47763;BME280;33526;42.690;23.322;2023-07-13T05:49:42;95279.09;;;27.84;49.38
47763;BME280;33526;42.690;23.322;2023-07-13T05:54:49;95387.13;;;28.44;49.53
47763;BME280;33526;42.690;23.322;2023-07-13T05:57:16;95270.59;;;27.54;49.62
47763;BME280;33526;42.690;23.322;2023-07-13T05:59:48;95357.72;;;28.60;48.39
47763;BME280;33526;42.690;23.322;2023-07-13T06:02:39;95374.56;;;28.64;49.51
47763;BME280;33526;42.690;23.322;2023-07-13T06:05:15;95301.72;;;28.62;48.63
47763;BME280;33526;42.690;23.322;2023-07-13T06:07:42;95287.59;;;28.56;47.86
47763;BME280;33526;42.690;23.322;2023-07-13T06:10:20;95393.00;;;29.87;45.57
47763;BME280;33526;42.690;23.322;2023-07-13T06:12:51;95324.28;;;28.98;45.94
47763;BME280;33526;42.690;23.322;2023-07-13T06:15:23;95273.03;;;28.46;46.28
47763;BME280;33526;42.690;23.322;2023-07-13T06:17:55;95288.69;;;28.60;46.10
47763;BME280;33526;42.690;23.322;2023-07-13T06:20:33;95279.16;;;28.17;46.86
47763;BME280;33526;42.690;23.322;2023-07-13T06:23:09;95385.25;;;29.29;46.13
47763;BME280;33526;42.690;23.322;2023-07-13T06:25:39;95333.91;;;29.61;44.07
47763;BME280;33526;42.690;23.322;2023-07-13T06:28:06;95318.19;;;29.79;43.35
47763;BME280;33526;42.690;23.322;2023-07-13T06:30:46;95395.03;;;30.29;42.45
47763;BME280;33526;42.690;23.322;2023-07-13T06:33:16;95285.19;;;29.90;42.45
47763;BME280;33526;42.690;23.322;2023-07-13T06:35:43;95326.53;;;30.20;42.44
47763;BME280;33526;42.690;23.322;2023-07-13T06:38:22;95325.81;;;29.84;42.52
47763;BME280;33526;42.690;23.322;2023-07-13T06:41:12;95297.72;;;29.32;42.88
47763;BME280;33526;42.690;23.322;2023-07-13T06:46:15;95312.19;;;29.00;43.44
47763;BME280;33526;42.690;23.322;2023-07-13T06:48:55;95356.19;;;29.17;44.18
47763;BME280;33526;42.690;23.322;2023-07-13T06:51:23;95262.63;;;28.58;43.68
47763;BME280;33526;42.690;23.322;2023-07-13T06:53:50;95269.19;;;28.51;44.72
47763;BME280;33526;42.690;23.322;2023-07-13T06:56:30;95252.31;;;28.22;45.06
47763;BME280;33526;42.690;23.322;2023-07-13T06:58:57;95331.44;;;28.24;45.59
47763;BME280;33526;42.690;23.322;2023-07-13T07:01:27;95378.66;;;28.53;46.58
47763;BME280;33526;42.690;23.322;2023-07-13T07:04:22;95267.53;;;27.59;47.81
47763;BME280;33526;42.690;23.322;2023-07-13T07:06:49;95267.44;;;27.26;48.60
47763;BME280;33526;42.690;23.322;2023-07-13T07:09:16;95307.34;;;27.55;48.88
47763;BME280;33526;42.690;23.322;2023-07-13T07:11:50;95391.75;;;28.31;48.63
47763;BME280;33526;42.690;23.322;2023-07-13T07:14:17;95376.06;;;28.25;49.16
47763;BME280;33526;42.690;23.322;2023-07-13T07:17:04;95373.72;;;28.38;48.13
47763;BME280;33526;42.690;23.322;2023-07-13T07:20:01;95364.22;;;28.20;48.54
47763;BME280;33526;42.690;23.322;2023-07-13T07:23:06;95370.19;;;28.07;48.81
47763;BME280;33526;42.690;23.322;2023-07-13T07:25:33;95244.38;;;27.57;49.00
47763;BME280;33526;42.690;23.322;2023-07-13T07:28:02;95242.00;;;27.71;47.73
47763;BME280;33526;42.690;23.322;2023-07-13T07:30:42;95311.88;;;28.30;48.14
47763;BME280;33526;42.690;23.322;2023-07-13T07:33:14;95299.56;;;28.37;47.90
47763;BME280;33526;42.690;23.322;2023-07-13T07:35:42;95368.31;;;28.83;46.96
47763;BME280;33526;42.690;23.322;2023-07-13T07:38:33;95239.66;;;27.85;47.21
47763;BME280;33526;42.690;23.322;2023-07-13T07:41:15;95360.34;;;28.66;46.86
47763;BME280;33526;42.690;23.322;2023-07-13T07:43:54;95352.13;;;28.63;47.24
47763;BME280;33526;42.690;23.322;2023-07-13T07:46:49;95277.03;;;28.26;46.55
47763;BME280;33526;42.690;23.322;2023-07-13T07:49:38;95308.31;;;28.54;46.38
47763;BME280;33526;42.690;23.322;2023-07-13T07:52:06;95232.28;;;28.07;46.29
47763;BME280;33526;42.690;23.322;2023-07-13T07:54:53;95224.97;;;28.14;45.98
47763;BME280;33526;42.690;23.322;2023-07-13T07:57:28;95241.41;;;28.46;46.22
47763;BME280;33526;42.690;23.322;2023-07-13T08:00:08;95302.09;;;29.16;45.52
47763;BME280;33526;42.690;23.322;2023-07-13T08:03:00;95224.25;;;28.64;45.47
47763;BME280;33526;42.690;23.322;2023-07-13T08:06:07;95231.91;;;28.86;44.90
47763;BME280;33526;42.690;23.322;2023-07-13T08:09:09;95220.13;;;28.49;45.24
47763;BME280;33526;42.690;23.322;2023-07-13T08:11:43;95279.53;;;29.05;45.99
47763;BME280;33526;42.690;23.322;2023-07-13T08:14:28;95295.84;;;29.27;44.79
47763;BME280;33526;42.690;23.322;2023-07-13T08:17:08;95306.78;;;29.46;44.51
47763;BME280;33526;42.690;23.322;2023-07-13T08:19:43;95205.59;;;28.72;44.10
47763;BME280;33526;42.690;23.322;2023-07-13T08:22:19;95243.03;;;29.07;44.53
47763;BME280;33526;42.690;23.322;2023-07-13T08:24:59;95248.84;;;29.42;43.73
47763;BME280;33526;42.690;23.322;2023-07-13T08:27:56;95310.97;;;29.88;43.72
47763;BME280;33526;42.690;23.322;2023-07-13T08:30:31;95274.22;;;29.79;43.25
47763;BME280;33526;42.690;23.322;2023-07-13T08:33:05;95283.28;;;29.75;43.15
47763;BME280;33526;42.690;23.322;2023-07-13T08:35:34;95196.94;;;29.50;43.74
47763;BME280;33526;42.690;23.322;2023-07-13T08:40:55;95195.59;;;30.23;41.75
47763;BME280;33526;42.690;23.322;2023-07-13T08:43:39;95230.91;;;30.78;41.27
47763;BME280;33526;42.690;23.322;2023-07-13T08:46:48;95184.31;;;30.35;40.91
47763;BME280;33526;42.690;23.322;2023-07-13T08:49:22;95208.72;;;30.34;41.74
47763;BME280;33526;42.690;23.322;2023-07-13T08:52:10;95184.06;;;30.23;41.16
47763;BME280;33526;42.690;23.322;2023-07-13T08:55:32;95201.34;;;30.50;41.11
47763;BME280;33526;42.690;23.322;2023-07-13T08:58:16;95253.31;;;30.97;40.55
47763;BME280;33526;42.690;23.322;2023-07-13T09:01:19;95303.09;;;31.24;41.31
47763;BME280;33526;42.690;23.322;2023-07-13T09:04:45;95263.88;;;30.84;41.29
47763;BME280;33526;42.690;23.322;2023-07-13T09:07:55;95316.75;;;31.24;41.38
47763;BME280;33526;42.690;23.322;2023-07-13T09:10:47;95228.03;;;30.41;41.06
47763;BME280;33526;42.690;23.322;2023-07-13T09:16:23;95291.94;;;30.74;39.70
47763;BME280;33526;42.690;23.322;2023-07-13T09:19:14;95325.63;;;30.99;40.48
47763;BME280;33526;42.690;23.322;2023-07-13T09:27:47;95266.94;;;30.86;40.97
47763;BME280;33526;42.690;23.322;2023-07-13T09:30:37;95292.00;;;31.31;40.75
47763;BME280;33526;42.690;23.322;2023-07-13T09:33:35;95319.97;;;31.38;40.68
47763;BME280;33526;42.690;23.322;2023-07-13T09:36:33;95291.16;;;31.57;39.51
47763;BME280;33526;42.690;23.322;2023-07-13T09:39:47;95250.56;;;31.55;39.19
47763;BME280;33526;42.690;23.322;2023-07-13T09:42:30;95224.53;;;31.36;39.31
47763;BME280;33526;42.690;23.322;2023-07-13T09:45:03;95316.28;;;32.13;39.46
47763;BME280;33526;42.690;23.322;2023-07-13T09:48:20;95219.69;;;31.48;39.49
47763;BME280;33526;42.690;23.322;2023-07-13T09:51:17;95257.25;;;31.68;38.61
47763;BME280;33526;42.690;23.322;2023-07-13T09:53:45;95209.63;;;31.39;38.54
47763;BME280;33526;42.690;23.322;2023-07-13T09:56:25;95175.28;;;31.14;39.12
47763;BME280;33526;42.690;23.322;2023-07-13T09:58:53;95239.16;;;31.96;39.09
47763;BME280;33526;42.690;23.322;2023-07-13T10:01:36;95186.81;;;31.73;38.13
47763;BME280;33526;42.690;23.322;2023-07-13T10:04:18;95237.59;;;31.95;37.89
47763;BME280;33526;42.690;23.322;2023-07-13T10:07:06;95152.63;;;31.69;37.64
47763;BME280;33526;42.690;23.322;2023-07-13T10:09:37;95226.56;;;32.43;37.61
47763;BME280;33526;42.690;23.322;2023-07-13T10:12:16;95204.13;;;32.63;36.92
47763;BME280;33526;42.690;23.322;2023-07-13T10:14:58;95177.03;;;32.89;33.70
47763;BME280;33526;42.690;23.322;2023-07-13T10:18:03;95181.50;;;33.02;34.94
47763;BME280;33526;42.690;23.322;2023-07-13T10:21:11;95231.75;;;33.17;32.78
47763;BME280;33526;42.690;23.322;2023-07-13T10:23:39;95257.47;;;33.44;33.77
47763;BME280;33526;42.690;23.322;2023-07-13T10:28:38;95151.72;;;33.11;32.96
47763;BME280;33526;42.690;23.322;2023-07-13T10:31:15;95253.66;;;34.06;33.35
47763;BME280;33526;42.690;23.322;2023-07-13T10:33:45;95219.28;;;33.90;30.54
47763;BME280;33526;42.690;23.322;2023-07-13T10:36:51;95181.16;;;33.72;30.44
47763;BME280;33526;42.690;23.322;2023-07-13T10:39:36;95222.91;;;34.13;28.27
47763;BME280;33526;42.690;23.322;2023-07-13T10:42:29;95192.81;;;33.84;28.13
47763;BME280;33526;42.690;23.322;2023-07-13T10:44:56;95186.81;;;34.04;28.22
47763;BME280;33526;42.690;23.322;2023-07-13T10:47:26;95175.00;;;34.12;27.46
47763;BME280;33526;42.690;23.322;2023-07-13T10:49:57;95192.72;;;34.39;27.44
47763;BME280;33526;42.690;23.322;2023-07-13T10:52:55;95220.06;;;34.24;27.05
47763;BME280;33526;42.690;23.322;2023-07-13T10:55:55;95217.19;;;34.36;27.57
47763;BME280;33526;42.690;23.322;2023-07-13T10:58:31;95165.66;;;34.13;28.15
47763;BME280;33526;42.690;23.322;2023-07-13T11:03:50;95099.69;;;33.90;26.82
47763;BME280;33526;42.690;23.322;2023-07-13T11:08:58;95151.34;;;34.51;27.54
47763;BME280;33526;42.690;23.322;2023-07-13T11:11:36;95154.13;;;34.60;28.00
47763;BME280;33526;42.690;23.322;2023-07-13T11:14:37;95189.44;;;35.16;27.10
47763;BME280;33526;42.690;23.322;2023-07-13T11:18:02;95073.13;;;34.41;27.12
47763;BME280;33526;42.690;23.322;2023-07-13T11:20:39;95095.84;;;34.56;27.01
47763;BME280;33526;42.690;23.322;2023-07-13T11:23:31;95091.91;;;34.63;26.99
47763;BME280;33526;42.690;23.322;2023-07-13T11:26:00;95106.19;;;34.59;27.20
47763;BME280;33526;42.690;23.322;2023-07-13T11:28:33;95154.59;;;35.04;27.42
47763;BME280;33526;42.690;23.322;2023-07-13T11:31:20;95134.47;;;34.71;27.92
47763;BME280;33526;42.690;23.322;2023-07-13T11:33:53;95080.19;;;34.61;27.50
47763;BME280;33526;42.690;23.322;2023-07-13T11:36:23;95138.53;;;35.15;27.06
47763;BME280;33526;42.690;23.322;2023-07-13T11:39:23;95167.44;;;35.36;26.69
47763;BME280;33526;42.690;23.322;2023-07-13T11:41:58;95151.19;;;35.19;27.34
47763;BME280;33526;42.690;23.322;2023-07-13T11:44:26;95069.09;;;34.46;28.08
47763;BME280;33526;42.690;23.322;2023-07-13T11:47:00;95067.97;;;34.39;28.29
47763;BME280;33526;42.690;23.322;2023-07-13T11:49:43;95164.47;;;35.22;28.59
47763;BME280;33526;42.690;23.322;2023-07-13T11:52:21;95072.84;;;34.84;28.73
47763;BME280;33526;42.690;23.322;2023-07-13T11:54:55;95135.84;;;35.42;28.39
47763;BME280;33526;42.690;23.322;2023-07-13T11:57:35;95133.25;;;35.23;28.34
47763;BME280;33526;42.690;23.322;2023-07-13T12:00:15;95083.00;;;35.09;29.10
47763;BME280;33526;42.690;23.322;2023-07-13T12:02:50;95050.34;;;34.96;28.59
47763;BME280;33526;42.690;23.322;2023-07-13T12:05:19;95118.63;;;35.47;28.52
47763;BME280;33526;42.690;23.322;2023-07-13T12:07:51;95139.28;;;35.65;27.83
47763;BME280;33526;42.690;23.322;2023-07-13T12:10:30;95015.50;;;34.96;27.13
47763;BME280;33526;42.690;23.322;2023-07-13T12:13:03;95097.69;;;35.36;27.64
47763;BME280;33526;42.690;23.322;2023-07-13T12:15:45;95128.88;;;35.48;27.48
47763;BME280;33526;42.690;23.322;2023-07-13T12:18:31;95051.28;;;35.13;26.94
47763;BME280;33526;42.690;23.322;2023-07-13T12:21:03;95052.28;;;35.17;26.61
47763;BME280;33526;42.690;23.322;2023-07-13T12:23:32;95063.88;;;35.29;27.22
47763;BME280;33526;42.690;23.322;2023-07-13T12:28:55;95075.97;;;35.63;27.57
47763;BME280;33526;42.690;23.322;2023-07-13T12:34:01;95063.94;;;35.69;27.13
47763;BME280;33526;42.690;23.322;2023-07-13T12:39:45;95094.03;;;35.73;25.98
47763;BME280;33526;42.690;23.322;2023-07-13T12:42:32;95057.94;;;35.53;26.23
47763;BME280;33526;42.690;23.322;2023-07-13T12:45:29;95087.38;;;35.85;25.95
47763;BME280;33526;42.690;23.322;2023-07-13T12:48:28;94987.06;;;35.32;26.22
47763;BME280;33526;42.690;23.322;2023-07-13T12:51:00;95048.53;;;35.66;26.68
47763;BME280;33526;42.690;23.322;2023-07-13T12:53:30;95081.28;;;36.06;26.46
47763;BME280;33526;42.690;23.322;2023-07-13T12:56:03;95051.19;;;35.88;26.43
47763;BME280;33526;42.690;23.322;2023-07-13T12:58:38;95053.81;;;36.09;25.92
47763;BME280;33526;42.690;23.322;2023-07-13T13:01:09;94982.97;;;35.63;25.26
47763;BME280;33526;42.690;23.322;2023-07-13T13:03:39;95035.09;;;36.12;24.85
47763;BME280;33526;42.690;23.322;2023-07-13T13:08:52;95057.16;;;36.17;25.52
47763;BME280;33526;42.690;23.322;2023-07-13T13:11:29;95057.06;;;36.15;25.92
47763;BME280;33526;42.690;23.322;2023-07-13T13:14:03;95031.16;;;36.20;25.35
47763;BME280;33526;42.690;23.322;2023-07-13T13:16:49;94971.94;;;35.87;24.50
47763;BME280;33526;42.690;23.322;2023-07-13T13:19:28;94998.88;;;36.15;25.16
47763;BME280;33526;42.690;23.322;2023-07-13T13:21:55;94960.72;;;35.82;24.56
47763;BME280;33526;42.690;23.322;2023-07-13T13:24:26;95047.06;;;36.46;24.96
47763;BME280;33526;42.690;23.322;2023-07-13T13:26:53;95001.91;;;36.17;25.13
47763;BME280;33526;42.690;23.322;2023-07-13T13:29:26;95014.44;;;36.34;24.90
47763;BME280;33526;42.690;23.322;2023-07-13T13:31:57;94996.34;;;36.22;25.03
47763;BME280;33526;42.690;23.322;2023-07-13T13:34:23;95001.69;;;36.13;25.17
47763;BME280;33526;42.690;23.322;2023-07-13T13:36:58;94974.31;;;36.05;25.15
47763;BME280;33526;42.690;23.322;2023-07-13T13:39:36;95004.50;;;36.39;25.42
47763;BME280;33526;42.690;23.322;2023-07-13T13:42:02;95033.72;;;36.69;25.38
47763;BME280;33526;42.690;23.322;2023-07-13T13:44:31;94951.59;;;36.01;25.56
47763;BME280;33526;42.690;23.322;2023-07-13T13:46:59;94980.91;;;36.19;24.86
47763;BME280;33526;42.690;23.322;2023-07-13T13:49:30;94974.44;;;36.21;25.29
47763;BME280;33526;42.690;23.322;2023-07-13T13:51:56;95013.78;;;36.49;24.80
47763;BME280;33526;42.690;23.322;2023-07-13T13:54:24;95004.84;;;36.59;24.96
47763;BME280;33526;42.690;23.322;2023-07-13T13:56:57;95029.44;;;36.70;25.08
47763;BME280;33526;42.690;23.322;2023-07-13T13:59:33;95022.50;;;36.63;24.87
47763;BME280;33526;42.690;23.322;2023-07-13T14:02:27;95035.22;;;36.56;24.95
47763;BME280;33526;42.690;23.322;2023-07-13T14:05:01;94949.44;;;36.15;24.66
47763;BME280;33526;42.690;23.322;2023-07-13T14:07:40;94965.28;;;36.40;24.46
47763;BME280;33526;42.690;23.322;2023-07-13T14:10:35;94981.31;;;36.55;24.61
47763;BME280;33526;42.690;23.322;2023-07-13T14:13:04;95018.63;;;36.86;25.51
47763;BME280;33526;42.690;23.322;2023-07-13T14:15:31;94977.13;;;36.58;24.92
47763;BME280;33526;42.690;23.322;2023-07-13T14:18:00;95012.25;;;36.76;25.25
47763;BME280;33526;42.690;23.322;2023-07-13T14:20:27;94986.41;;;36.54;24.86
47763;BME280;33526;42.690;23.322;2023-07-13T14:22:55;95012.59;;;36.54;25.41
47763;BME280;33526;42.690;23.322;2023-07-13T14:25:28;94964.06;;;36.17;25.50
47763;BME280;33526;42.690;23.322;2023-07-13T14:28:26;95021.53;;;36.59;25.69
47763;BME280;33526;42.690;23.322;2023-07-13T14:30:55;95026.63;;;36.72;25.07
47763;BME280;33526;42.690;23.322;2023-07-13T14:33:20;94994.28;;;36.52;24.81
47763;BME280;33526;42.690;23.322;2023-07-13T14:35:49;94981.97;;;36.53;25.35
47763;BME280;33526;42.690;23.322;2023-07-13T14:38:17;94986.81;;;36.63;25.71
47763;BME280;33526;42.690;23.322;2023-07-13T14:40:49;94960.09;;;36.52;25.93
47763;BME280;33526;42.690;23.322;2023-07-13T14:43:17;94982.41;;;36.62;25.37
47763;BME280;33526;42.690;23.322;2023-07-13T14:46:00;94921.53;;;36.10;26.47
47763;BME280;33526;42.690;23.322;2023-07-13T14:48:32;94938.56;;;36.30;25.87
47763;BME280;33526;42.690;23.322;2023-07-13T14:51:01;95026.06;;;36.76;25.76
47763;BME280;33526;42.690;23.322;2023-07-13T14:53:37;94998.91;;;36.71;26.12
47763;BME280;33526;42.690;23.322;2023-07-13T14:56:13;94921.75;;;36.14;26.42
47763;BME280;33526;42.690;23.322;2023-07-13T14:58:41;94978.66;;;36.45;26.99
47763;BME280;33526;42.690;23.322;2023-07-13T15:01:12;95006.66;;;36.66;26.91
47763;BME280;33526;42.690;23.322;2023-07-13T15:03:53;94945.91;;;36.31;26.86
47763;BME280;33526;42.690;23.322;2023-07-13T15:06:25;94985.13;;;36.44;27.09
47763;BME280;33526;42.690;23.322;2023-07-13T15:08:56;94922.28;;;35.97;27.79
47763;BME280;33526;42.690;23.322;2023-07-13T15:11:23;94945.69;;;36.27;27.46
47763;BME280;33526;42.690;23.322;2023-07-13T15:13:56;94983.38;;;36.52;27.26
47763;BME280;33526;42.690;23.322;2023-07-13T15:16:25;94997.69;;;36.62;27.17
47763;BME280;33526;42.690;23.322;2023-07-13T15:18:55;94981.00;;;36.63;27.29
47763;BME280;33526;42.690;23.322;2023-07-13T15:21:41;95002.97;;;36.66;28.16
47763;BME280;33526;42.690;23.322;2023-07-13T15:24:13;95018.38;;;36.82;27.75
47763;BME280;33526;42.690;23.322;2023-07-13T15:27:12;95018.94;;;36.79;27.05
47763;BME280;33526;42.690;23.322;2023-07-13T15:29:40;94999.56;;;36.55;27.04
47763;BME280;33526;42.690;23.322;2023-07-13T15:32:17;94977.38;;;36.34;26.81
47763;BME280;33526;42.690;23.322;2023-07-13T15:34:50;94995.38;;;36.45;26.77
47763;BME280;33526;42.690;23.322;2023-07-13T15:37:19;94993.09;;;36.43;27.32
47763;BME280;33526;42.690;23.322;2023-07-13T15:39:53;95006.34;;;36.46;26.97
47763;BME280;33526;42.690;23.322;2023-07-13T15:42:22;94948.38;;;35.95;27.35